createdAt,value
2024-01-05T00:01:30.302Z,11.98
2024-01-05T00:03:33.408Z,11.96
2024-01-05T00:05:37.097Z,11.97
2024-01-05T00:07:41.399Z,12.00
2024-01-05T00:09:44.282Z,12.00
2024-01-05T00:11:48.313Z,12.00
2024-01-05T00:13:51.251Z,12.00
2024-01-05T00:15:54.340Z,11.99
2024-01-05T00:17:58.215Z,12.00
2024-01-05T00:20:01.360Z,12.02
2024-01-05T00:22:04.316Z,12.01
2024-01-05T00:24:08.968Z,12.00
2024-01-05T00:26:11.814Z,12.02
2024-01-05T00:28:15.013Z,12.01
2024-01-05T00:30:18.145Z,12.00
2024-01-05T00:32:21.091Z,12.02
2024-01-05T00:34:24.031Z,12.03
2024-01-05T00:36:26.998Z,12.04
2024-01-05T00:38:28.951Z,12.05
2024-01-05T00:40:33.204Z,12.05
2024-01-05T00:42:36.236Z,12.04
2024-01-05T00:44:39.182Z,12.05
2024-01-05T00:46:42.315Z,12.05
2024-01-05T00:48:44.495Z,12.05
2024-01-05T00:50:47.713Z,12.05
2024-01-05T00:52:50.868Z,12.01
2024-01-05T00:54:54.010Z,12.02
2024-01-05T00:56:58.294Z,12.04
2024-01-05T00:59:01.182Z,12.04
2024-01-05T01:01:04.831Z,12.06
2024-01-05T01:03:08.223Z,12.06
2024-01-05T01:05:12.124Z,12.07
2024-01-05T01:07:14.756Z,12.07
2024-01-05T01:09:18.033Z,12.06
2024-01-05T01:11:23.315Z,12.09
2024-01-05T01:13:29.451Z,12.11
2024-01-05T01:15:31.578Z,12.11
2024-01-05T01:17:34.825Z,12.10
2024-01-05T01:19:37.724Z,12.09
2024-01-05T01:21:40.731Z,12.07
2024-01-05T01:23:43.700Z,12.06
2024-01-05T01:25:45.806Z,12.03
2024-01-05T01:27:48.678Z,11.98
2024-01-05T01:29:52.699Z,11.99
2024-01-05T01:31:54.621Z,12.00
2024-01-05T01:33:58.399Z,12.01
2024-01-05T01:36:00.948Z,12.03
2024-01-05T01:38:04.031Z,12.03
2024-01-05T01:40:07.767Z,12.02
2024-01-05T01:42:10.660Z,12.02
2024-01-05T01:44:13.664Z,12.03
2024-01-05T01:46:18.291Z,12.04
2024-01-05T01:48:21.183Z,12.05
2024-01-05T01:50:25.989Z,12.05
2024-01-05T01:52:29.402Z,12.05
2024-01-05T01:54:34.688Z,12.05
2024-01-05T01:56:39.722Z,12.02
2024-01-05T01:58:45.612Z,12.00
2024-01-05T02:00:49.022Z,11.99
2024-01-05T02:02:55.749Z,11.95
2024-01-05T02:04:59.514Z,11.94
2024-01-05T02:07:03.493Z,11.94
2024-01-05T02:09:07.177Z,11.95
2024-01-05T02:11:10.070Z,11.97
2024-01-05T02:13:13.081Z,11.97
2024-01-05T02:15:16.023Z,11.97
2024-01-05T02:17:32.576Z,11.97
2024-01-05T02:19:37.104Z,11.99
2024-01-05T02:21:44.234Z,11.98
2024-01-05T02:23:47.515Z,12.01
2024-01-05T02:25:50.559Z,12.03
2024-01-05T02:27:53.398Z,12.04
2024-01-05T02:29:55.361Z,12.08
2024-01-05T02:31:58.465Z,12.08
2024-01-05T02:34:02.183Z,12.07
2024-01-05T02:36:05.648Z,12.06
2024-01-05T02:38:08.923Z,12.08
2024-01-05T02:40:14.652Z,12.09
2024-01-05T02:42:16.710Z,12.09
2024-01-05T02:44:19.717Z,12.10
2024-01-05T02:46:21.894Z,12.09
2024-01-05T02:48:24.924Z,12.08
2024-01-05T02:50:27.836Z,12.08
2024-01-05T02:52:29.702Z,12.09
2024-01-05T02:54:32.710Z,12.09
2024-01-05T02:56:37.623Z,12.10
2024-01-05T02:58:40.122Z,12.12
2024-01-05T03:00:43.163Z,12.12
2024-01-05T03:02:46.146Z,12.14
2024-01-05T03:04:48.223Z,12.15
2024-01-05T03:06:51.151Z,12.16
2024-01-05T03:08:54.237Z,12.15
2024-01-05T03:10:57.764Z,12.16
2024-01-05T03:13:02.085Z,12.15
2024-01-05T03:15:04.634Z,12.15
2024-01-05T03:17:07.864Z,12.16
2024-01-05T03:19:11.739Z,12.16
2024-01-05T03:21:15.030Z,12.16
2024-01-05T03:23:17.975Z,12.17
2024-01-05T03:25:20.873Z,12.17
2024-01-05T03:27:22.740Z,12.18
2024-01-05T03:29:27.092Z,12.17
2024-01-05T03:31:30.124Z,12.19
2024-01-05T03:33:32.307Z,12.20
2024-01-05T03:35:35.364Z,12.19
2024-01-05T03:37:38.245Z,12.18
2024-01-05T03:39:41.442Z,12.18
2024-01-05T03:41:44.385Z,12.19
2024-01-05T03:43:47.289Z,12.20
2024-01-05T03:45:50.588Z,12.19
2024-01-05T03:47:53.532Z,12.19
2024-01-05T03:49:56.606Z,12.18
2024-01-05T03:51:59.568Z,12.20
2024-01-05T03:54:02.450Z,12.20
2024-01-05T03:56:05.860Z,12.20
2024-01-05T03:58:09.033Z,12.21
2024-01-05T04:00:13.216Z,12.19
2024-01-05T04:02:17.518Z,12.18
2024-01-05T04:04:20.753Z,12.17
2024-01-05T04:06:23.720Z,12.17
2024-01-05T04:08:26.829Z,12.14
2024-01-05T04:10:29.699Z,12.15
2024-01-05T04:12:53.242Z,12.15
2024-01-05T04:15:16.334Z,12.14
2024-01-05T04:17:20.568Z,12.13
2024-01-05T04:19:23.892Z,12.15
2024-01-05T04:21:27.118Z,12.15
2024-01-05T04:23:30.268Z,12.16
2024-01-05T04:25:33.671Z,12.13
2024-01-05T04:27:35.739Z,12.15
2024-01-05T04:29:39.860Z,12.17
2024-01-05T04:31:42.864Z,12.17
2024-01-05T04:33:47.774Z,12.18
2024-01-05T04:35:49.829Z,12.18
2024-01-05T04:37:52.709Z,12.19
2024-01-05T04:39:55.697Z,12.19
2024-01-05T04:41:58.657Z,12.19
2024-01-05T04:44:01.557Z,12.19
2024-01-05T04:46:06.108Z,12.16
2024-01-05T04:48:09.521Z,12.15
2024-01-05T04:50:13.880Z,12.14
2024-01-05T04:52:17.096Z,12.12
2024-01-05T04:54:20.000Z,12.14
2024-01-05T04:56:22.932Z,12.14
2024-01-05T04:58:26.233Z,12.14
2024-01-05T05:00:29.230Z,12.14
2024-01-05T05:02:32.123Z,12.12
2024-01-05T05:04:35.118Z,12.12
2024-01-05T05:06:39.406Z,12.11
2024-01-05T05:08:42.325Z,12.11
2024-01-05T05:10:45.454Z,12.10
2024-01-05T05:12:48.373Z,12.08
2024-01-05T05:14:51.253Z,12.10
2024-01-05T05:16:54.763Z,12.09
2024-01-05T05:18:57.783Z,12.08
2024-01-05T05:21:00.910Z,12.09
2024-01-05T05:23:05.546Z,12.10
2024-01-05T05:25:09.075Z,12.11
2024-01-05T05:27:11.943Z,12.12
2024-01-05T05:29:14.561Z,12.13
2024-01-05T05:31:17.747Z,12.14
2024-01-05T05:33:20.646Z,12.14
2024-01-05T05:35:24.733Z,12.16
2024-01-05T05:37:27.832Z,12.19
2024-01-05T05:39:31.076Z,12.19
2024-01-05T05:41:34.212Z,12.19
2024-01-05T05:43:37.090Z,12.20
2024-01-05T05:45:40.086Z,12.18
2024-01-05T05:47:43.153Z,12.17
2024-01-05T05:49:46.217Z,12.14
2024-01-05T05:51:49.212Z,12.11
2024-01-05T05:53:52.221Z,12.10
2024-01-05T05:55:56.548Z,12.08
2024-01-05T05:58:00.449Z,12.07
2024-01-05T06:00:06.249Z,12.07
2024-01-05T06:02:09.244Z,12.07
2024-01-05T06:04:12.650Z,12.08
2024-01-05T06:06:20.145Z,12.09
2024-01-05T06:08:23.183Z,12.06
2024-01-05T06:10:25.289Z,12.05
2024-01-05T06:12:29.629Z,12.04
2024-01-05T06:14:32.492Z,12.05
2024-01-05T06:16:35.377Z,12.04
2024-01-05T06:18:39.043Z,12.04
2024-01-05T06:20:42.296Z,12.03
2024-01-05T06:22:44.342Z,12.03
2024-01-05T06:24:47.538Z,12.05
2024-01-05T06:26:49.411Z,12.05
2024-01-05T06:28:53.934Z,12.08
2024-01-05T06:30:56.983Z,12.09
2024-01-05T06:33:00.526Z,12.08
2024-01-05T06:35:04.451Z,12.08
2024-01-05T06:37:07.266Z,12.09
2024-01-05T06:39:10.430Z,12.10
2024-01-05T06:41:13.321Z,12.09
2024-01-05T06:43:16.239Z,12.09
2024-01-05T06:45:20.479Z,12.09
2024-01-05T06:47:23.384Z,12.10
2024-01-05T06:49:26.586Z,12.10
2024-01-05T06:51:31.397Z,12.10
2024-01-05T06:53:34.573Z,12.09
2024-01-05T06:55:37.458Z,12.05
2024-01-05T06:57:39.293Z,12.03
2024-01-05T06:59:42.233Z,11.99
2024-01-05T07:01:46.649Z,12.00
2024-01-05T07:03:49.952Z,12.00
2024-01-05T07:05:52.869Z,12.01
2024-01-05T07:07:55.763Z,12.03
2024-01-05T07:09:58.671Z,12.03
2024-01-05T07:12:01.768Z,11.99
2024-01-05T07:14:04.683Z,12.00
2024-01-05T07:16:17.018Z,11.97
2024-01-05T07:18:21.294Z,11.91
2024-01-05T07:20:24.173Z,11.90
2024-01-05T07:22:27.291Z,11.89
2024-01-05T07:24:30.574Z,11.89
2024-01-05T07:26:33.871Z,11.92
2024-01-05T07:28:36.656Z,11.92
2024-01-05T07:30:39.907Z,11.91
2024-01-05T07:32:42.864Z,11.90
2024-01-05T07:34:47.863Z,11.86
2024-01-05T07:36:51.720Z,11.85
2024-01-05T07:38:54.586Z,11.84
2024-01-05T07:40:58.593Z,11.83
2024-01-05T07:43:00.403Z,11.85
2024-01-05T07:45:05.666Z,11.89
2024-01-05T07:47:10.621Z,11.90
2024-01-05T07:49:13.838Z,11.94
2024-01-05T07:51:21.310Z,11.96
2024-01-05T07:53:24.188Z,11.97
2024-01-05T07:55:27.052Z,11.97
2024-01-05T07:57:30.007Z,11.94
2024-01-05T07:59:33.195Z,11.94
2024-01-05T08:01:36.213Z,11.96
2024-01-05T08:03:40.061Z,11.97
2024-01-05T08:05:47.084Z,11.96
2024-01-05T08:07:51.912Z,11.96
2024-01-05T08:09:54.741Z,11.97
2024-01-05T08:11:57.576Z,11.98
2024-01-05T08:14:01.027Z,11.96
2024-01-05T08:16:03.024Z,11.94
2024-01-05T08:18:06.840Z,11.95
2024-01-05T08:20:11.979Z,11.98
2024-01-05T08:22:14.797Z,11.99
2024-01-05T08:24:19.133Z,12.01
2024-01-05T08:26:21.303Z,12.00
2024-01-05T08:28:24.124Z,12.00
2024-01-05T08:30:27.328Z,11.99
2024-01-05T08:32:29.474Z,12.00
2024-01-05T08:34:32.433Z,12.00
2024-01-05T08:36:36.203Z,11.96
2024-01-05T08:38:39.544Z,11.98
2024-01-05T08:40:43.790Z,11.96
2024-01-05T08:42:47.086Z,11.95
2024-01-05T08:44:51.605Z,11.94
2024-01-05T08:46:54.757Z,11.94
2024-01-05T08:48:58.245Z,11.94
2024-01-05T08:51:00.827Z,11.92
2024-01-05T08:53:03.647Z,11.94
2024-01-05T08:55:07.549Z,11.96
2024-01-05T08:57:12.486Z,11.98
2024-01-05T08:59:15.418Z,12.00
2024-01-05T09:01:18.408Z,12.01
2024-01-05T09:03:20.828Z,12.02
2024-01-05T09:05:24.055Z,12.05
2024-01-05T09:07:26.064Z,12.06
2024-01-05T09:09:29.069Z,12.06
2024-01-05T09:11:31.935Z,12.08
2024-01-05T09:13:39.176Z,12.06
2024-01-05T09:15:42.495Z,12.07
2024-01-05T09:17:45.403Z,12.07
2024-01-05T09:19:48.486Z,12.06
2024-01-05T09:21:51.473Z,12.08
2024-01-05T09:23:54.658Z,12.09
2024-01-05T09:25:58.374Z,12.09
2024-01-05T09:28:02.099Z,12.09
2024-01-05T09:30:07.865Z,12.09
2024-01-05T09:32:11.306Z,12.08
2024-01-05T09:34:14.818Z,12.11
2024-01-05T09:36:18.709Z,12.12
2024-01-05T09:38:20.967Z,12.12
2024-01-05T09:40:24.310Z,12.14
2024-01-05T09:42:28.400Z,12.14
2024-01-05T09:44:32.234Z,12.11
2024-01-05T09:46:40.157Z,12.10
2024-01-05T09:48:47.929Z,12.08
2024-01-05T09:50:56.287Z,12.08
2024-01-05T09:52:59.743Z,12.05
2024-01-05T09:55:02.581Z,12.04
2024-01-05T09:57:07.521Z,12.03
2024-01-05T09:59:10.342Z,12.02
2024-01-05T10:01:23.301Z,12.01
2024-01-05T10:03:27.956Z,12.01
2024-01-05T10:05:31.545Z,12.01
2024-01-05T10:07:42.360Z,11.99
2024-01-05T10:09:51.898Z,11.99
2024-01-05T10:11:56.058Z,11.97
2024-01-05T10:14:01.283Z,11.97
2024-01-05T10:16:05.979Z,11.96
2024-01-05T10:18:19.921Z,11.94
2024-01-05T10:20:29.511Z,11.91
2024-01-05T10:22:34.866Z,11.93
2024-01-05T10:24:37.893Z,11.94
2024-01-05T10:26:40.723Z,11.96
2024-01-05T10:28:42.674Z,11.98
2024-01-05T10:30:45.648Z,11.98
2024-01-05T10:32:47.717Z,11.98
2024-01-05T10:34:52.444Z,11.97
2024-01-05T10:37:04.621Z,11.99
2024-01-05T10:39:10.164Z,12.04
2024-01-05T10:41:14.186Z,12.04
2024-01-05T10:43:19.841Z,12.05
2024-01-05T10:45:21.919Z,12.06
2024-01-05T10:47:26.941Z,12.07
2024-01-05T10:49:31.602Z,12.06
2024-01-05T10:51:35.990Z,12.08
2024-01-05T10:53:40.388Z,12.07
2024-01-05T10:55:44.731Z,12.10
2024-01-05T10:57:48.000Z,12.13
2024-01-05T10:59:52.449Z,12.12
2024-01-05T11:01:55.410Z,12.10
2024-01-05T11:03:58.618Z,12.11
2024-01-05T11:06:02.381Z,12.12
2024-01-05T11:08:05.123Z,12.12
2024-01-05T11:10:22.099Z,12.12
2024-01-05T11:12:38.317Z,12.12
2024-01-05T11:14:54.260Z,12.12
2024-01-05T11:17:22.518Z,12.09
2024-01-05T11:19:54.703Z,12.06
2024-01-05T11:22:02.012Z,12.04
2024-01-05T11:24:06.130Z,12.00
2024-01-05T11:26:31.306Z,11.99
2024-01-05T11:28:38.202Z,11.99
2024-01-05T11:30:41.893Z,12.00
2024-01-05T11:32:46.975Z,12.05
2024-01-05T11:34:50.519Z,12.05
2024-01-05T11:36:57.179Z,12.06
2024-01-05T11:39:00.161Z,12.07
2024-01-05T11:41:19.156Z,12.07
2024-01-05T11:43:43.517Z,12.08
2024-01-05T11:45:49.944Z,12.06
2024-01-05T11:47:52.922Z,12.07
2024-01-05T11:49:54.914Z,12.07
2024-01-05T11:51:58.013Z,12.07
2024-01-05T11:54:01.211Z,12.08
2024-01-05T11:56:09.024Z,12.09
2024-01-05T11:58:18.421Z,12.09
2024-01-05T12:00:21.441Z,12.11
2024-01-05T12:02:24.394Z,12.09
2024-01-05T12:04:27.828Z,12.08
2024-01-05T12:06:30.788Z,12.10
2024-01-05T12:08:33.123Z,12.10
2024-01-05T12:10:36.824Z,12.08
2024-01-05T12:12:39.821Z,12.09
2024-01-05T12:14:44.929Z,12.07
2024-01-05T12:16:48.325Z,12.07
2024-01-05T12:18:53.762Z,12.08
2024-01-05T12:20:57.064Z,12.08
2024-01-05T12:22:59.921Z,12.08
2024-01-05T12:25:02.778Z,12.08
2024-01-05T12:27:06.663Z,12.06
2024-01-05T12:29:10.127Z,12.07
2024-01-05T12:31:14.882Z,12.05
2024-01-05T12:33:17.886Z,12.06
2024-01-05T12:35:21.363Z,12.08
2024-01-05T12:37:25.621Z,12.08
2024-01-05T12:39:27.466Z,12.09
2024-01-05T12:41:30.416Z,12.08
2024-01-05T12:43:33.810Z,12.08
2024-01-05T12:45:36.833Z,12.08
2024-01-05T12:47:42.009Z,12.09
2024-01-05T12:49:45.965Z,12.08
2024-01-05T12:51:49.771Z,12.10
2024-01-05T12:54:04.097Z,12.09
2024-01-05T12:56:09.201Z,12.09
2024-01-05T12:58:12.132Z,12.10
2024-01-05T13:00:14.515Z,12.10
2024-01-05T13:02:18.688Z,12.11
2024-01-05T13:04:36.471Z,12.12
2024-01-05T13:06:45.194Z,12.13
2024-01-05T13:08:48.360Z,12.13
2024-01-05T13:10:51.199Z,12.12
2024-01-05T13:12:53.338Z,12.12
2024-01-05T13:14:56.233Z,12.12
2024-01-05T13:17:01.649Z,12.10
2024-01-05T13:19:06.922Z,12.08
2024-01-05T13:21:11.583Z,12.06
2024-01-05T13:23:17.589Z,12.04
2024-01-05T13:25:22.279Z,12.05
2024-01-05T13:27:24.666Z,12.02
2024-01-05T13:29:27.711Z,12.02
2024-01-05T13:31:30.639Z,12.02
2024-01-05T13:33:33.050Z,12.03
2024-01-05T13:35:37.610Z,12.02
2024-01-05T13:37:41.956Z,12.03
2024-01-05T13:39:44.864Z,12.03
2024-01-05T13:41:47.877Z,12.02
2024-01-05T13:43:51.259Z,12.03
2024-01-05T13:45:55.216Z,12.04
2024-01-05T13:47:58.588Z,12.02
2024-01-05T13:50:00.857Z,11.99
2024-01-05T13:52:04.260Z,11.98
2024-01-05T13:54:08.552Z,11.98
2024-01-05T13:56:10.456Z,11.99
2024-01-05T13:58:13.560Z,12.01
2024-01-05T14:00:16.998Z,12.04
2024-01-05T14:02:20.645Z,12.02
2024-01-05T14:04:22.533Z,12.03
2024-01-05T14:06:26.133Z,12.03
2024-01-05T14:08:30.068Z,12.03
2024-01-05T14:10:34.457Z,12.03
2024-01-05T14:12:37.335Z,12.00
2024-01-05T14:14:39.444Z,11.99
2024-01-05T14:16:42.982Z,11.96
2024-01-05T14:18:45.021Z,11.95
2024-01-05T14:20:48.323Z,11.96
2024-01-05T14:22:52.228Z,11.96
2024-01-05T14:24:55.096Z,11.97
2024-01-05T14:26:59.589Z,11.95
2024-01-05T14:29:02.510Z,11.97
2024-01-05T14:31:04.966Z,11.97
2024-01-05T14:33:08.775Z,11.97
2024-01-05T14:35:11.870Z,11.97
2024-01-05T14:37:14.873Z,11.97
2024-01-05T14:39:17.875Z,11.95
2024-01-05T14:41:19.987Z,11.97
2024-01-05T14:43:24.232Z,11.96
2024-01-05T14:45:27.448Z,11.96
2024-01-05T14:47:30.624Z,11.96
2024-01-05T14:49:33.783Z,11.94
2024-01-05T14:51:37.269Z,11.91
2024-01-05T14:53:40.552Z,11.89
2024-01-05T14:55:45.287Z,11.87
2024-01-05T14:57:48.782Z,11.83
2024-01-05T14:59:53.945Z,11.79
2024-01-05T15:01:58.758Z,11.76
2024-01-05T15:04:02.086Z,11.76
2024-01-05T15:06:06.090Z,11.74
2024-01-05T15:08:08.984Z,11.72
2024-01-05T15:10:13.519Z,11.71
2024-01-05T15:12:17.277Z,11.68
2024-01-05T15:14:19.183Z,11.66
2024-01-05T15:16:23.717Z,11.66
2024-01-05T15:18:27.532Z,11.64
2024-01-05T15:20:30.645Z,11.63
2024-01-05T15:22:34.315Z,11.62
2024-01-05T15:24:39.995Z,11.60
2024-01-05T15:26:46.065Z,11.58
2024-01-05T15:28:48.959Z,11.52
2024-01-05T15:30:51.906Z,11.52
2024-01-05T15:32:56.547Z,11.50
2024-01-05T15:35:00.303Z,11.49
2024-01-05T15:37:03.646Z,11.50
2024-01-05T15:39:07.046Z,11.53
2024-01-05T15:41:10.153Z,11.51
2024-01-05T15:43:13.257Z,11.54
2024-01-05T15:45:15.429Z,11.55
2024-01-05T15:47:20.749Z,11.59
2024-01-05T15:49:25.514Z,11.62
2024-01-05T15:51:31.010Z,11.62
2024-01-05T15:53:34.874Z,11.62
2024-01-05T15:55:41.208Z,11.60
2024-01-05T15:57:47.830Z,11.59
2024-01-05T15:59:51.028Z,11.59
2024-01-05T16:01:53.948Z,11.59
2024-01-05T16:03:57.864Z,11.59
2024-01-05T16:06:02.541Z,11.63
2024-01-05T16:08:06.196Z,11.64
2024-01-05T16:10:10.462Z,11.65
2024-01-05T16:12:13.458Z,11.68
2024-01-05T16:14:18.224Z,11.66
2024-01-05T16:16:25.298Z,11.68
2024-01-05T16:18:28.182Z,11.68
2024-01-05T16:20:31.107Z,11.68
2024-01-05T16:22:35.324Z,11.68
2024-01-05T16:24:38.470Z,11.66
2024-01-05T16:26:41.583Z,11.66
2024-01-05T16:28:44.461Z,11.65
2024-01-05T16:30:48.874Z,11.64
2024-01-05T16:32:51.788Z,11.63
2024-01-05T16:34:54.845Z,11.61
2024-01-05T16:36:57.848Z,11.60
2024-01-05T16:39:01.730Z,11.60
2024-01-05T16:41:07.791Z,11.58
2024-01-05T16:43:09.886Z,11.56
2024-01-05T16:45:13.579Z,11.56
2024-01-05T16:47:16.514Z,11.55
2024-01-05T16:49:19.771Z,11.53
2024-01-05T16:51:23.891Z,11.49
2024-01-05T16:53:28.843Z,11.48
2024-01-05T16:55:33.106Z,11.48
2024-01-05T16:57:36.092Z,11.48
2024-01-05T16:59:38.307Z,11.47
2024-01-05T17:01:41.843Z,11.45
2024-01-05T17:03:46.402Z,11.45
2024-01-05T17:05:49.480Z,11.46
2024-01-05T17:07:52.476Z,11.45
2024-01-05T17:09:55.469Z,11.46
2024-01-05T17:12:00.342Z,11.45
2024-01-05T17:14:03.867Z,11.45
2024-01-05T17:16:10.173Z,11.48
2024-01-05T17:18:13.456Z,11.49
2024-01-05T17:20:24.036Z,11.50
2024-01-05T17:22:28.450Z,11.53
2024-01-05T17:24:31.334Z,11.51
2024-01-05T17:26:39.538Z,11.50
2024-01-05T17:28:44.097Z,11.51
2024-01-05T17:30:48.180Z,11.49
2024-01-05T17:32:51.104Z,11.51
2024-01-05T17:34:54.050Z,11.50
2024-01-05T17:36:57.271Z,11.51
2024-01-05T17:38:59.591Z,11.53
2024-01-05T17:41:02.412Z,11.53
2024-01-05T17:43:06.837Z,11.55
2024-01-05T17:45:11.583Z,11.54
2024-01-05T17:47:15.092Z,11.53
2024-01-05T17:49:17.623Z,11.52
2024-01-05T17:51:20.682Z,11.53
2024-01-05T17:53:23.645Z,11.53
2024-01-05T17:55:26.793Z,11.52
2024-01-05T17:57:29.705Z,11.51
2024-01-05T17:59:32.929Z,11.50
2024-01-05T18:01:43.210Z,11.50
2024-01-05T18:03:46.504Z,11.52
2024-01-05T18:05:49.825Z,11.51
2024-01-05T18:07:54.470Z,11.52
2024-01-05T18:09:57.495Z,11.52
2024-01-05T18:12:00.327Z,11.52
2024-01-05T18:14:04.538Z,11.50
2024-01-05T18:16:08.905Z,11.52
2024-01-05T18:18:13.354Z,11.51
2024-01-05T18:20:15.375Z,11.53
2024-01-05T18:22:18.193Z,11.53
2024-01-05T18:24:21.999Z,11.53
2024-01-05T18:26:28.320Z,11.53
2024-01-05T18:28:31.232Z,11.56
2024-01-05T18:30:33.208Z,11.54
2024-01-05T18:32:36.168Z,11.55
2024-01-05T18:34:45.754Z,11.54
2024-01-05T18:36:48.834Z,11.55
2024-01-05T18:38:52.706Z,11.52
2024-01-05T18:40:56.422Z,11.50
2024-01-05T18:43:00.086Z,11.49
2024-01-05T18:45:02.084Z,11.49
2024-01-05T18:47:05.555Z,11.47
2024-01-05T18:49:09.063Z,11.46
2024-01-05T18:51:14.168Z,11.47
2024-01-05T18:53:17.245Z,11.46
2024-01-05T18:55:20.315Z,11.49
2024-01-05T18:57:23.484Z,11.49
2024-01-05T18:59:25.359Z,11.49
2024-01-05T19:01:28.385Z,11.49
2024-01-05T19:03:31.900Z,11.51
2024-01-05T19:05:34.872Z,11.53
2024-01-05T19:07:39.174Z,11.51
2024-01-05T19:09:42.034Z,11.48
2024-01-05T19:11:44.838Z,11.45
2024-01-05T19:13:47.824Z,11.43
2024-01-05T19:15:51.622Z,11.41
2024-01-05T19:17:54.692Z,11.40
2024-01-05T19:19:57.923Z,11.40
2024-01-05T19:22:00.826Z,11.38
2024-01-05T19:24:05.326Z,11.37
2024-01-05T19:26:08.624Z,11.36
2024-01-05T19:28:10.819Z,11.35
2024-01-05T19:30:14.724Z,11.34
2024-01-05T19:32:17.641Z,11.34
2024-01-05T19:34:20.581Z,11.33
2024-01-05T19:36:23.530Z,11.34
2024-01-05T19:38:26.521Z,11.33
2024-01-05T19:40:32.734Z,11.34
2024-01-05T19:42:36.727Z,11.33
2024-01-05T19:44:39.672Z,11.34
2024-01-05T19:46:42.538Z,11.33
2024-01-05T19:48:45.815Z,11.32
2024-01-05T19:50:49.123Z,11.33
2024-01-05T19:52:52.201Z,11.34
2024-01-05T19:54:55.966Z,11.38
2024-01-05T19:57:00.379Z,11.40
2024-01-05T19:59:02.167Z,11.41
2024-01-05T20:01:05.861Z,11.42
2024-01-05T20:03:09.653Z,11.42
2024-01-05T20:05:12.633Z,11.44
2024-01-05T20:07:17.052Z,11.43
2024-01-05T20:09:20.586Z,11.44
2024-01-05T20:11:23.467Z,11.43
2024-01-05T20:13:28.362Z,11.40
2024-01-05T20:15:31.878Z,11.39
2024-01-05T20:17:34.919Z,11.38
2024-01-05T20:19:38.558Z,11.39
2024-01-05T20:21:41.568Z,11.38
2024-01-05T20:23:44.666Z,11.39
2024-01-05T20:25:47.691Z,11.38
2024-01-05T20:27:50.584Z,11.38
2024-01-05T20:29:54.005Z,11.37
2024-01-05T20:31:57.259Z,11.36
2024-01-05T20:34:00.930Z,11.35
2024-01-05T20:36:04.960Z,11.36
2024-01-05T20:38:07.800Z,11.33
2024-01-05T20:40:11.377Z,11.32
2024-01-05T20:42:14.384Z,11.30
2024-01-05T20:44:18.407Z,11.30
2024-01-05T20:46:23.864Z,11.31
2024-01-05T20:48:27.071Z,11.26
2024-01-05T20:50:28.909Z,11.25
2024-01-05T20:52:34.298Z,11.25
2024-01-05T20:54:36.202Z,11.25
2024-01-05T20:56:39.113Z,11.24
2024-01-05T20:58:45.335Z,11.24
2024-01-05T21:00:50.992Z,11.25
2024-01-05T21:02:55.179Z,11.25
2024-01-05T21:04:57.237Z,11.23
2024-01-05T21:07:01.250Z,11.22
2024-01-05T21:09:06.157Z,11.24
2024-01-05T21:11:08.982Z,11.23
2024-01-05T21:13:11.996Z,11.24
2024-01-05T21:15:14.963Z,11.24
2024-01-05T21:17:17.918Z,11.25
2024-01-05T21:19:22.669Z,11.24
2024-01-05T21:21:28.715Z,11.24
2024-01-05T21:23:31.631Z,11.27
2024-01-05T21:25:34.671Z,11.28
2024-01-05T21:27:37.845Z,11.28
2024-01-05T21:29:42.887Z,11.28
2024-01-05T21:31:48.419Z,11.27
2024-01-05T21:33:51.449Z,11.26
2024-01-05T21:35:55.770Z,11.29
2024-01-05T21:37:58.933Z,11.30
2024-01-05T21:40:01.764Z,11.31
2024-01-05T21:42:06.144Z,11.30
2024-01-05T21:44:09.202Z,11.24
2024-01-05T21:46:12.940Z,11.23
2024-01-05T21:48:15.863Z,11.24
2024-01-05T21:50:18.799Z,11.25
2024-01-05T21:52:23.010Z,11.25
2024-01-05T21:54:27.133Z,11.25
2024-01-05T21:56:30.375Z,11.26
2024-01-05T21:58:33.315Z,11.28
2024-01-05T22:00:36.251Z,11.27
2024-01-05T22:02:39.140Z,11.29
2024-01-05T22:04:41.915Z,11.30
2024-01-05T22:06:45.064Z,11.32
2024-01-05T22:08:50.791Z,11.32
2024-01-05T22:10:53.788Z,11.32
2024-01-05T22:12:58.810Z,11.33
2024-01-05T22:15:02.256Z,11.34
2024-01-05T22:17:05.467Z,11.33
2024-01-05T22:19:07.881Z,11.32
2024-01-05T22:21:12.366Z,11.33
2024-01-05T22:23:15.563Z,11.33
2024-01-05T22:25:19.751Z,11.32
2024-01-05T22:27:23.967Z,11.31
2024-01-05T22:29:27.313Z,11.29
2024-01-05T22:31:31.516Z,11.28
2024-01-05T22:33:34.597Z,11.24
2024-01-05T22:35:38.896Z,11.22
2024-01-05T22:37:42.054Z,11.20
2024-01-05T22:39:44.953Z,11.16
2024-01-05T22:41:49.484Z,11.13
2024-01-05T22:43:53.418Z,11.11
2024-01-05T22:45:56.390Z,11.10
2024-01-05T22:47:59.616Z,11.09
2024-01-05T22:50:02.761Z,11.09
2024-01-05T22:52:07.561Z,11.11
2024-01-05T22:54:10.421Z,11.11
2024-01-05T22:56:13.585Z,11.08
2024-01-05T22:58:16.819Z,11.07
2024-01-05T23:00:22.472Z,11.06
2024-01-05T23:02:26.312Z,11.05
2024-01-05T23:04:29.352Z,11.04
2024-01-05T23:06:32.370Z,11.04
2024-01-05T23:08:35.299Z,11.04
2024-01-05T23:10:38.141Z,11.05
2024-01-05T23:12:41.040Z,11.06
2024-01-05T23:14:45.263Z,11.06
2024-01-05T23:16:50.129Z,11.06
2024-01-05T23:18:54.022Z,11.08
2024-01-05T23:20:57.846Z,11.06
2024-01-05T23:23:00.786Z,11.05
2024-01-05T23:25:03.491Z,11.08
2024-01-05T23:27:06.690Z,11.06
2024-01-05T23:29:11.178Z,11.05
2024-01-05T23:31:15.480Z,11.05
2024-01-05T23:33:17.481Z,11.06
2024-01-05T23:35:20.527Z,11.08
2024-01-05T23:37:23.842Z,11.11
2024-01-05T23:39:26.701Z,11.11
2024-01-05T23:41:30.525Z,11.08
2024-01-05T23:43:33.056Z,11.11
2024-01-05T23:45:35.984Z,11.12
2024-01-05T23:47:40.296Z,11.13
2024-01-05T23:49:43.559Z,11.13
2024-01-05T23:51:46.589Z,11.13
2024-01-05T23:53:50.330Z,11.13
2024-01-05T23:55:53.256Z,11.12
2024-01-05T23:57:56.124Z,11.10
2024-01-05T23:59:59.499Z,11.10
